UKLR

Rivne International Airport

Rivne, Ukraine
TAF UKLR 241104Z 2412/2421 26009G14MPS 9999 BKN010 BKN015CB TEMPO 2412/2421 29017G22MPS 2100 -SHRA BKN007 BKN010CB
Issued Valid From Valid To
Sep-24 @ 11:04 UTC
(8 hours ago)
Sep-24 @ 12:00 UTC
(8 hours ago)
Sep-24 @ 21:00 UTC
(in an hour)
Sep-24 @ 12:00 to Sep-24 @ 21:00
TAF UKLR 241104Z 2412/2421 26009G14MPS 9999 BKN010 BKN015CB
Wind Visibility Clouds
260° at 17 knots
 Gusting to 27 knots
10,000+ meters
  • Broken at 1,000' AGL
  • Broken at 1,500' AGL
Temporary Sep-24 @ 12:00 to Sep-24 @ 21:00
TEMPO 2412/2421 29017G22MPS 2100 -SHRA BKN007 BKN010CB
Wind Visibility Clouds Conditions
290° at 33 knots
 Gusting to 43 knots
2,092 meters
  • Broken at 700' AGL
  • Broken at 1,000' AGL
  • Light Rain
TAF UKLR 241104Z 2412/2421 26009G14MPS 9999 BKN010 BKN015CB TEMPO 2412/2421 29017G22MPS 2100 -SHRA BKN007 BKN010CB
Issued Sep-24 @ 11:04 UTC
(8 hours ago)
Valid From Sep-24 @ 12:00 UTC
(8 hours ago)
Valid To Sep-24 @ 21:00 UTC
(in an hour)
Sep-24 @ 12:00 - Sep-24 @ 21:00
Wind Visibility
260° at 17 knots
 Gusting to 27 knots
10,000+ meters
Clouds
  • Broken at 1,000' AGL
  • Broken at 1,500' AGL
Temporary Sep-24 @ 12:00 - Sep-24 @ 21:00
Wind Visibility
290° at 33 knots
 Gusting to 43 knots
2,092 meters
Clouds
  • Broken at 700' AGL
  • Broken at 1,000' AGL
Conditions
  • Light Rain